sensor_id;sensor_type;location;lat;lon;timestamp;temperature;humidity
21568;DHT22;10944;42.590;12.630;2022-12-18T00:01:30;10.20;99.90
21568;DHT22;10944;42.590;12.630;2022-12-18T00:03:57;10.20;99.90
21568;DHT22;10944;42.590;12.630;2022-12-18T00:06:25;10.30;99.90
21568;DHT22;10944;42.590;12.630;2022-12-18T00:08:51;10.30;99.90
21568;DHT22;10944;42.590;12.630;2022-12-18T00:11:18;10.30;99.90
21568;DHT22;10944;42.590;12.630;2022-12-18T00:13:44;10.30;99.90
21568;DHT22;10944;42.590;12.630;2022-12-18T00:16:12;10.30;99.90
21568;DHT22;10944;42.590;12.630;2022-12-18T00:18:38;10.30;99.90
21568;DHT22;10944;42.590;12.630;2022-12-18T00:21:06;10.40;99.90
21568;DHT22;10944;42.590;12.630;2022-12-18T00:23:34;10.40;99.90
21568;DHT22;10944;42.590;12.630;2022-12-18T00:26:01;10.50;99.90
21568;DHT22;10944;42.590;12.630;2022-12-18T00:28:27;10.40;99.90
21568;DHT22;10944;42.590;12.630;2022-12-18T00:31:07;10.40;99.90
21568;DHT22;10944;42.590;12.630;2022-12-18T00:33:34;10.40;99.90
21568;DHT22;10944;42.590;12.630;2022-12-18T00:36:01;10.40;99.90
21568;DHT22;10944;42.590;12.630;2022-12-18T00:38:27;10.40;99.90
21568;DHT22;10944;42.590;12.630;2022-12-18T00:40:53;10.40;99.90
21568;DHT22;10944;42.590;12.630;2022-12-18T00:43:18;10.40;99.90
21568;DHT22;10944;42.590;12.630;2022-12-18T00:45:45;10.40;99.90
21568;DHT22;10944;42.590;12.630;2022-12-18T00:48:10;10.40;99.90
21568;DHT22;10944;42.590;12.630;2022-12-18T00:50:36;10.40;99.90
21568;DHT22;10944;42.590;12.630;2022-12-18T00:53:02;10.40;99.90
21568;DHT22;10944;42.590;12.630;2022-12-18T00:55:27;10.40;99.90
21568;DHT22;10944;42.590;12.630;2022-12-18T00:57:53;10.40;99.90
21568;DHT22;10944;42.590;12.630;2022-12-18T01:00:19;10.40;99.90
21568;DHT22;10944;42.590;12.630;2022-12-18T01:02:44;10.30;99.90
21568;DHT22;10944;42.590;12.630;2022-12-18T01:05:12;10.30;99.90
21568;DHT22;10944;42.590;12.630;2022-12-18T01:07:38;10.30;99.90
21568;DHT22;10944;42.590;12.630;2022-12-18T01:10:05;10.30;99.90
21568;DHT22;10944;42.590;12.630;2022-12-18T01:12:32;10.30;99.90
21568;DHT22;10944;42.590;12.630;2022-12-18T01:14:58;10.20;99.90
21568;DHT22;10944;42.590;12.630;2022-12-18T01:17:24;10.20;99.90
21568;DHT22;10944;42.590;12.630;2022-12-18T01:19:49;10.20;99.90
21568;DHT22;10944;42.590;12.630;2022-12-18T01:22:15;10.10;99.90
21568;DHT22;10944;42.590;12.630;2022-12-18T01:24:41;10.20;99.90
21568;DHT22;10944;42.590;12.630;2022-12-18T01:27:07;10.20;99.90
21568;DHT22;10944;42.590;12.630;2022-12-18T01:29:32;10.30;99.90
21568;DHT22;10944;42.590;12.630;2022-12-18T01:31:58;10.20;99.90
21568;DHT22;10944;42.590;12.630;2022-12-18T01:34:24;10.30;99.90
21568;DHT22;10944;42.590;12.630;2022-12-18T01:36:50;10.20;99.90
21568;DHT22;10944;42.590;12.630;2022-12-18T01:39:18;10.20;99.90
21568;DHT22;10944;42.590;12.630;2022-12-18T01:41:45;10.10;99.90
21568;DHT22;10944;42.590;12.630;2022-12-18T01:44:59;9.90;99.90
21568;DHT22;10944;42.590;12.630;2022-12-18T01:52:50;9.90;99.90
21568;DHT22;10944;42.590;12.630;2022-12-18T01:55:19;9.90;99.90
21568;DHT22;10944;42.590;12.630;2022-12-18T01:57:46;10.00;99.90
21568;DHT22;10944;42.590;12.630;2022-12-18T02:00:15;10.00;99.90
21568;DHT22;10944;42.590;12.630;2022-12-18T02:02:43;10.00;99.90
21568;DHT22;10944;42.590;12.630;2022-12-18T02:05:12;10.00;99.90
21568;DHT22;10944;42.590;12.630;2022-12-18T02:08:07;9.90;99.90
21568;DHT22;10944;42.590;12.630;2022-12-18T02:18:58;9.80;99.90
21568;DHT22;10944;42.590;12.630;2022-12-18T02:24:29;9.80;99.90
21568;DHT22;10944;42.590;12.630;2022-12-18T02:27:00;9.90;99.90
21568;DHT22;10944;42.590;12.630;2022-12-18T02:29:50;9.90;99.90
21568;DHT22;10944;42.590;12.630;2022-12-18T02:32:24;10.00;99.90
21568;DHT22;10944;42.590;12.630;2022-12-18T02:34:51;10.00;99.90
21568;DHT22;10944;42.590;12.630;2022-12-18T02:37:19;10.00;99.90
21568;DHT22;10944;42.590;12.630;2022-12-18T02:39:47;10.00;99.90
21568;DHT22;10944;42.590;12.630;2022-12-18T02:42:14;10.00;99.90
21568;DHT22;10944;42.590;12.630;2022-12-18T02:44:48;10.00;99.90
21568;DHT22;10944;42.590;12.630;2022-12-18T02:47:16;10.10;99.90
21568;DHT22;10944;42.590;12.630;2022-12-18T02:55:28;10.20;99.90
21568;DHT22;10944;42.590;12.630;2022-12-18T03:00:30;10.10;99.90
21568;DHT22;10944;42.590;12.630;2022-12-18T03:03:04;10.00;99.90
21568;DHT22;10944;42.590;12.630;2022-12-18T03:06:21;9.90;99.90
21568;DHT22;10944;42.590;12.630;2022-12-18T03:08:29;9.90;99.90
21568;DHT22;10944;42.590;12.630;2022-12-18T03:11:03;9.90;99.90
21568;DHT22;10944;42.590;12.630;2022-12-18T03:16:06;9.70;99.90
21568;DHT22;10944;42.590;12.630;2022-12-18T03:18:49;9.60;99.90
21568;DHT22;10944;42.590;12.630;2022-12-18T03:21:21;9.50;99.90
21568;DHT22;10944;42.590;12.630;2022-12-18T03:23:49;9.40;99.90
21568;DHT22;10944;42.590;12.630;2022-12-18T03:26:19;9.40;99.90
21568;DHT22;10944;42.590;12.630;2022-12-18T03:28:53;9.30;99.90
21568;DHT22;10944;42.590;12.630;2022-12-18T03:31:22;9.20;99.90
21568;DHT22;10944;42.590;12.630;2022-12-18T03:33:54;9.20;99.90
21568;DHT22;10944;42.590;12.630;2022-12-18T03:36:20;9.10;99.90
21568;DHT22;10944;42.590;12.630;2022-12-18T03:38:47;9.00;99.90
21568;DHT22;10944;42.590;12.630;2022-12-18T03:44:01;8.90;99.90
21568;DHT22;10944;42.590;12.630;2022-12-18T03:46:36;8.90;99.90
21568;DHT22;10944;42.590;12.630;2022-12-18T03:49:14;8.80;99.90
21568;DHT22;10944;42.590;12.630;2022-12-18T03:54:25;8.70;99.90
21568;DHT22;10944;42.590;12.630;2022-12-18T03:57:02;8.60;99.90
21568;DHT22;10944;42.590;12.630;2022-12-18T03:59:29;8.60;99.90
21568;DHT22;10944;42.590;12.630;2022-12-18T04:01:57;8.60;99.90
21568;DHT22;10944;42.590;12.630;2022-12-18T04:04:24;8.50;99.90
21568;DHT22;10944;42.590;12.630;2022-12-18T04:06:52;8.50;99.90
21568;DHT22;10944;42.590;12.630;2022-12-18T04:09:19;8.40;99.90
21568;DHT22;10944;42.590;12.630;2022-12-18T04:11:45;8.40;99.90
21568;DHT22;10944;42.590;12.630;2022-12-18T04:14:12;8.40;99.90
21568;DHT22;10944;42.590;12.630;2022-12-18T04:16:37;8.40;99.90
21568;DHT22;10944;42.590;12.630;2022-12-18T04:19:04;8.30;99.90
21568;DHT22;10944;42.590;12.630;2022-12-18T04:21:30;8.30;99.90
21568;DHT22;10944;42.590;12.630;2022-12-18T04:23:55;8.30;99.90
21568;DHT22;10944;42.590;12.630;2022-12-18T04:26:21;8.20;99.90
21568;DHT22;10944;42.590;12.630;2022-12-18T04:28:47;8.20;99.90
21568;DHT22;10944;42.590;12.630;2022-12-18T04:31:13;8.30;99.90
21568;DHT22;10944;42.590;12.630;2022-12-18T04:33:38;8.20;99.90
21568;DHT22;10944;42.590;12.630;2022-12-18T04:36:05;8.20;99.90
21568;DHT22;10944;42.590;12.630;2022-12-18T04:38:30;8.10;99.90
21568;DHT22;10944;42.590;12.630;2022-12-18T04:40:56;8.10;99.90
21568;DHT22;10944;42.590;12.630;2022-12-18T04:43:22;8.00;99.90
21568;DHT22;10944;42.590;12.630;2022-12-18T04:45:48;8.00;99.90
21568;DHT22;10944;42.590;12.630;2022-12-18T04:48:13;7.90;99.90
21568;DHT22;10944;42.590;12.630;2022-12-18T04:50:39;7.90;99.90
21568;DHT22;10944;42.590;12.630;2022-12-18T04:53:04;7.90;99.90
21568;DHT22;10944;42.590;12.630;2022-12-18T04:55:30;7.90;99.90
21568;DHT22;10944;42.590;12.630;2022-12-18T04:57:56;7.90;99.90
21568;DHT22;10944;42.590;12.630;2022-12-18T05:00:22;8.00;99.90
21568;DHT22;10944;42.590;12.630;2022-12-18T05:02:48;8.00;99.90
21568;DHT22;10944;42.590;12.630;2022-12-18T05:05:13;8.00;99.90
21568;DHT22;10944;42.590;12.630;2022-12-18T05:07:39;8.00;99.90
21568;DHT22;10944;42.590;12.630;2022-12-18T05:10:05;7.90;99.90
21568;DHT22;10944;42.590;12.630;2022-12-18T05:12:31;7.80;99.90
21568;DHT22;10944;42.590;12.630;2022-12-18T05:14:57;7.90;99.90
21568;DHT22;10944;42.590;12.630;2022-12-18T05:17:22;7.80;99.90
21568;DHT22;10944;42.590;12.630;2022-12-18T05:19:48;7.70;99.90
21568;DHT22;10944;42.590;12.630;2022-12-18T05:22:14;7.70;99.90
21568;DHT22;10944;42.590;12.630;2022-12-18T05:24:39;7.70;99.90
21568;DHT22;10944;42.590;12.630;2022-12-18T05:27:05;7.70;99.90
21568;DHT22;10944;42.590;12.630;2022-12-18T05:29:31;7.70;99.90
21568;DHT22;10944;42.590;12.630;2022-12-18T05:31:56;7.60;99.90
21568;DHT22;10944;42.590;12.630;2022-12-18T05:34:22;7.70;99.90
21568;DHT22;10944;42.590;12.630;2022-12-18T05:36:48;7.70;99.90
21568;DHT22;10944;42.590;12.630;2022-12-18T05:39:14;7.70;99.90
21568;DHT22;10944;42.590;12.630;2022-12-18T05:41:39;7.60;99.90
21568;DHT22;10944;42.590;12.630;2022-12-18T05:44:05;7.60;99.90
21568;DHT22;10944;42.590;12.630;2022-12-18T05:46:31;7.60;99.90
21568;DHT22;10944;42.590;12.630;2022-12-18T05:48:59;7.60;99.90
21568;DHT22;10944;42.590;12.630;2022-12-18T05:51:26;7.60;99.90
21568;DHT22;10944;42.590;12.630;2022-12-18T05:53:51;7.50;99.90
21568;DHT22;10944;42.590;12.630;2022-12-18T05:56:19;7.60;99.90
21568;DHT22;10944;42.590;12.630;2022-12-18T05:58:46;7.60;99.90
21568;DHT22;10944;42.590;12.630;2022-12-18T06:01:18;7.60;99.90
21568;DHT22;10944;42.590;12.630;2022-12-18T06:03:44;7.70;99.90
21568;DHT22;10944;42.590;12.630;2022-12-18T06:06:21;7.80;99.90
21568;DHT22;10944;42.590;12.630;2022-12-18T06:08:48;7.90;99.90
21568;DHT22;10944;42.590;12.630;2022-12-18T06:11:17;7.80;99.90
21568;DHT22;10944;42.590;12.630;2022-12-18T06:13:43;7.90;99.90
21568;DHT22;10944;42.590;12.630;2022-12-18T06:16:09;7.90;99.90
21568;DHT22;10944;42.590;12.630;2022-12-18T06:18:35;7.90;99.90
21568;DHT22;10944;42.590;12.630;2022-12-18T06:21:01;8.00;99.90
21568;DHT22;10944;42.590;12.630;2022-12-18T06:23:27;7.90;99.90
21568;DHT22;10944;42.590;12.630;2022-12-18T06:25:53;7.90;99.90
21568;DHT22;10944;42.590;12.630;2022-12-18T06:28:19;7.80;99.90
21568;DHT22;10944;42.590;12.630;2022-12-18T06:30:48;7.70;99.90
21568;DHT22;10944;42.590;12.630;2022-12-18T06:33:15;7.50;99.90
21568;DHT22;10944;42.590;12.630;2022-12-18T06:35:41;7.40;99.90
21568;DHT22;10944;42.590;12.630;2022-12-18T06:38:07;7.40;99.90
21568;DHT22;10944;42.590;12.630;2022-12-18T06:40:33;7.50;99.90
21568;DHT22;10944;42.590;12.630;2022-12-18T06:42:59;7.60;99.90
21568;DHT22;10944;42.590;12.630;2022-12-18T06:45:25;7.80;99.90
21568;DHT22;10944;42.590;12.630;2022-12-18T06:47:50;7.80;99.90
21568;DHT22;10944;42.590;12.630;2022-12-18T06:50:17;7.80;99.90
21568;DHT22;10944;42.590;12.630;2022-12-18T06:52:42;7.80;99.90
21568;DHT22;10944;42.590;12.630;2022-12-18T06:55:10;7.80;99.90
21568;DHT22;10944;42.590;12.630;2022-12-18T06:57:37;7.80;99.90
21568;DHT22;10944;42.590;12.630;2022-12-18T07:00:04;7.70;99.90
21568;DHT22;10944;42.590;12.630;2022-12-18T07:02:31;7.70;99.90
21568;DHT22;10944;42.590;12.630;2022-12-18T07:04:57;7.70;99.90
21568;DHT22;10944;42.590;12.630;2022-12-18T07:07:22;7.70;99.90
21568;DHT22;10944;42.590;12.630;2022-12-18T07:09:50;7.70;99.90
21568;DHT22;10944;42.590;12.630;2022-12-18T07:12:16;7.80;99.90
21568;DHT22;10944;42.590;12.630;2022-12-18T07:14:41;7.90;99.90
21568;DHT22;10944;42.590;12.630;2022-12-18T07:17:07;8.00;99.90
21568;DHT22;10944;42.590;12.630;2022-12-18T07:19:33;8.00;99.90
21568;DHT22;10944;42.590;12.630;2022-12-18T07:21:59;8.00;99.90
21568;DHT22;10944;42.590;12.630;2022-12-18T07:24:26;8.10;99.90
21568;DHT22;10944;42.590;12.630;2022-12-18T07:26:51;8.20;99.90
21568;DHT22;10944;42.590;12.630;2022-12-18T07:29:17;8.30;99.90
21568;DHT22;10944;42.590;12.630;2022-12-18T07:31:43;8.40;99.90
21568;DHT22;10944;42.590;12.630;2022-12-18T07:34:13;8.30;99.90
21568;DHT22;10944;42.590;12.630;2022-12-18T07:36:40;8.30;99.90
21568;DHT22;10944;42.590;12.630;2022-12-18T07:39:07;8.20;99.90
21568;DHT22;10944;42.590;12.630;2022-12-18T07:41:33;8.20;99.90
21568;DHT22;10944;42.590;12.630;2022-12-18T07:43:59;8.20;99.90
21568;DHT22;10944;42.590;12.630;2022-12-18T07:46:24;8.30;99.90
21568;DHT22;10944;42.590;12.630;2022-12-18T07:48:50;8.30;99.90
21568;DHT22;10944;42.590;12.630;2022-12-18T07:51:17;8.40;99.90
21568;DHT22;10944;42.590;12.630;2022-12-18T07:53:43;8.40;99.90
21568;DHT22;10944;42.590;12.630;2022-12-18T07:56:11;8.40;99.90
21568;DHT22;10944;42.590;12.630;2022-12-18T07:58:37;8.40;99.90
21568;DHT22;10944;42.590;12.630;2022-12-18T08:01:07;8.50;99.90
21568;DHT22;10944;42.590;12.630;2022-12-18T08:03:34;8.60;99.90
21568;DHT22;10944;42.590;12.630;2022-12-18T08:06:04;8.60;99.90
21568;DHT22;10944;42.590;12.630;2022-12-18T08:08:31;8.70;99.90
21568;DHT22;10944;42.590;12.630;2022-12-18T08:10:57;8.80;99.90
21568;DHT22;10944;42.590;12.630;2022-12-18T08:13:23;8.80;99.90
21568;DHT22;10944;42.590;12.630;2022-12-18T08:16:04;8.90;99.90
21568;DHT22;10944;42.590;12.630;2022-12-18T08:18:32;8.90;99.90
21568;DHT22;10944;42.590;12.630;2022-12-18T08:21:10;9.00;99.90
21568;DHT22;10944;42.590;12.630;2022-12-18T08:23:37;9.00;99.90
21568;DHT22;10944;42.590;12.630;2022-12-18T08:26:03;9.00;99.90
21568;DHT22;10944;42.590;12.630;2022-12-18T08:28:29;9.00;99.90
21568;DHT22;10944;42.590;12.630;2022-12-18T08:30:55;9.10;99.90
21568;DHT22;10944;42.590;12.630;2022-12-18T08:33:21;9.10;99.90
21568;DHT22;10944;42.590;12.630;2022-12-18T08:35:46;9.10;99.90
21568;DHT22;10944;42.590;12.630;2022-12-18T08:38:12;9.10;99.90
21568;DHT22;10944;42.590;12.630;2022-12-18T08:40:38;9.40;99.90
21568;DHT22;10944;42.590;12.630;2022-12-18T08:43:03;9.50;99.90
21568;DHT22;10944;42.590;12.630;2022-12-18T08:45:47;9.60;99.90
21568;DHT22;10944;42.590;12.630;2022-12-18T08:48:13;9.60;99.90
21568;DHT22;10944;42.590;12.630;2022-12-18T08:50:39;9.50;99.90
21568;DHT22;10944;42.590;12.630;2022-12-18T08:53:05;9.50;99.90
21568;DHT22;10944;42.590;12.630;2022-12-18T08:55:31;9.60;99.90
21568;DHT22;10944;42.590;12.630;2022-12-18T08:57:57;9.70;99.90
21568;DHT22;10944;42.590;12.630;2022-12-18T09:00:23;9.80;99.90
21568;DHT22;10944;42.590;12.630;2022-12-18T09:02:48;9.90;99.90
21568;DHT22;10944;42.590;12.630;2022-12-18T09:05:14;10.00;99.90
21568;DHT22;10944;42.590;12.630;2022-12-18T09:07:40;10.00;99.90
21568;DHT22;10944;42.590;12.630;2022-12-18T09:10:06;10.00;99.90
21568;DHT22;10944;42.590;12.630;2022-12-18T09:12:32;10.00;99.90
21568;DHT22;10944;42.590;12.630;2022-12-18T09:14:57;9.90;99.90
21568;DHT22;10944;42.590;12.630;2022-12-18T09:17:23;9.90;99.90
21568;DHT22;10944;42.590;12.630;2022-12-18T09:19:49;9.90;99.90
21568;DHT22;10944;42.590;12.630;2022-12-18T09:22:14;10.00;99.90
21568;DHT22;10944;42.590;12.630;2022-12-18T09:24:40;10.10;99.90
21568;DHT22;10944;42.590;12.630;2022-12-18T09:27:06;10.20;99.90
21568;DHT22;10944;42.590;12.630;2022-12-18T09:29:32;10.20;99.90
21568;DHT22;10944;42.590;12.630;2022-12-18T09:31:58;10.10;99.90
21568;DHT22;10944;42.590;12.630;2022-12-18T09:34:23;10.10;99.90
21568;DHT22;10944;42.590;12.630;2022-12-18T09:36:49;10.10;99.90
21568;DHT22;10944;42.590;12.630;2022-12-18T09:39:15;10.10;99.90
21568;DHT22;10944;42.590;12.630;2022-12-18T09:41:51;10.20;99.90
21568;DHT22;10944;42.590;12.630;2022-12-18T09:44:32;10.30;99.90
21568;DHT22;10944;42.590;12.630;2022-12-18T09:47:17;10.30;99.90
21568;DHT22;10944;42.590;12.630;2022-12-18T09:49:50;10.40;99.90
21568;DHT22;10944;42.590;12.630;2022-12-18T09:52:23;10.40;99.90
21568;DHT22;10944;42.590;12.630;2022-12-18T09:54:58;10.50;99.90
21568;DHT22;10944;42.590;12.630;2022-12-18T09:57:24;10.50;99.90
21568;DHT22;10944;42.590;12.630;2022-12-18T10:00:04;10.50;99.90
21568;DHT22;10944;42.590;12.630;2022-12-18T10:02:30;10.50;99.90
21568;DHT22;10944;42.590;12.630;2022-12-18T10:05:06;10.60;99.90
21568;DHT22;10944;42.590;12.630;2022-12-18T10:07:44;10.70;99.90
21568;DHT22;10944;42.590;12.630;2022-12-18T10:16:14;10.80;99.90
21568;DHT22;10944;42.590;12.630;2022-12-18T10:19:00;10.70;99.90
21568;DHT22;10944;42.590;12.630;2022-12-18T10:21:34;10.80;99.90
21568;DHT22;10944;42.590;12.630;2022-12-18T10:26:31;10.80;99.90
21568;DHT22;10944;42.590;12.630;2022-12-18T10:28:59;10.90;99.90
21568;DHT22;10944;42.590;12.630;2022-12-18T10:31:24;10.90;99.90
21568;DHT22;10944;42.590;12.630;2022-12-18T10:33:51;11.00;99.90
21568;DHT22;10944;42.590;12.630;2022-12-18T10:36:20;11.10;99.90
21568;DHT22;10944;42.590;12.630;2022-12-18T10:38:46;11.10;99.90
21568;DHT22;10944;42.590;12.630;2022-12-18T10:43:44;11.10;99.90
21568;DHT22;10944;42.590;12.630;2022-12-18T10:51:39;11.10;99.90
21568;DHT22;10944;42.590;12.630;2022-12-18T10:54:15;11.20;99.90
21568;DHT22;10944;42.590;12.630;2022-12-18T10:56:42;11.30;99.90
21568;DHT22;10944;42.590;12.630;2022-12-18T10:59:16;11.40;99.90
21568;DHT22;10944;42.590;12.630;2022-12-18T11:04:23;11.40;99.90
21568;DHT22;10944;42.590;12.630;2022-12-18T11:07:00;11.40;99.90
21568;DHT22;10944;42.590;12.630;2022-12-18T11:09:31;11.50;99.90
21568;DHT22;10944;42.590;12.630;2022-12-18T11:12:00;11.60;99.90
21568;DHT22;10944;42.590;12.630;2022-12-18T11:14:30;11.60;99.90
21568;DHT22;10944;42.590;12.630;2022-12-18T11:16:59;11.60;99.90
21568;DHT22;10944;42.590;12.630;2022-12-18T11:19:37;11.70;99.90
21568;DHT22;10944;42.590;12.630;2022-12-18T11:22:26;11.60;99.90
21568;DHT22;10944;42.590;12.630;2022-12-18T11:25:25;11.70;99.90
21568;DHT22;10944;42.590;12.630;2022-12-18T11:28:02;11.70;99.90
21568;DHT22;10944;42.590;12.630;2022-12-18T11:30:35;11.70;99.90
21568;DHT22;10944;42.590;12.630;2022-12-18T11:33:19;11.70;99.90
21568;DHT22;10944;42.590;12.630;2022-12-18T11:35:55;11.70;99.90
21568;DHT22;10944;42.590;12.630;2022-12-18T11:38:26;11.80;99.90
21568;DHT22;10944;42.590;12.630;2022-12-18T11:40:59;11.80;99.90
21568;DHT22;10944;42.590;12.630;2022-12-18T11:46:49;12.00;99.90
21568;DHT22;10944;42.590;12.630;2022-12-18T11:49:24;12.00;99.90
21568;DHT22;10944;42.590;12.630;2022-12-18T11:54:16;12.20;99.90
21568;DHT22;10944;42.590;12.630;2022-12-18T11:56:53;12.20;99.90
21568;DHT22;10944;42.590;12.630;2022-12-18T12:02:22;12.10;99.90
21568;DHT22;10944;42.590;12.630;2022-12-18T12:24:13;12.40;99.90
21568;DHT22;10944;42.590;12.630;2022-12-18T12:30:03;12.50;99.90
21568;DHT22;10944;42.590;12.630;2022-12-18T12:35:29;12.50;99.90
21568;DHT22;10944;42.590;12.630;2022-12-18T12:38:13;12.50;99.90
21568;DHT22;10944;42.590;12.630;2022-12-18T12:41:06;12.70;99.90
21568;DHT22;10944;42.590;12.630;2022-12-18T12:43:41;12.80;99.90
21568;DHT22;10944;42.590;12.630;2022-12-18T12:46:09;12.80;99.90
21568;DHT22;10944;42.590;12.630;2022-12-18T12:48:37;12.80;99.90
21568;DHT22;10944;42.590;12.630;2022-12-18T12:51:29;12.80;99.90
21568;DHT22;10944;42.590;12.630;2022-12-18T12:53:58;12.90;99.90
21568;DHT22;10944;42.590;12.630;2022-12-18T12:56:29;12.90;99.90
21568;DHT22;10944;42.590;12.630;2022-12-18T13:07:45;13.00;99.90
21568;DHT22;10944;42.590;12.630;2022-12-18T13:13:02;13.00;99.90
21568;DHT22;10944;42.590;12.630;2022-12-18T13:20:45;13.00;99.90
21568;DHT22;10944;42.590;12.630;2022-12-18T13:28:18;13.10;99.90
21568;DHT22;10944;42.590;12.630;2022-12-18T13:31:06;13.00;99.90
21568;DHT22;10944;42.590;12.630;2022-12-18T13:33:43;13.00;99.90
21568;DHT22;10944;42.590;12.630;2022-12-18T13:36:28;13.10;99.90
21568;DHT22;10944;42.590;12.630;2022-12-18T13:41:39;13.10;99.90
21568;DHT22;10944;42.590;12.630;2022-12-18T13:46:50;13.10;99.90
21568;DHT22;10944;42.590;12.630;2022-12-18T13:52:03;13.00;99.90
21568;DHT22;10944;42.590;12.630;2022-12-18T13:54:42;13.00;99.90
21568;DHT22;10944;42.590;12.630;2022-12-18T13:57:35;12.90;99.90
21568;DHT22;10944;42.590;12.630;2022-12-18T14:02:48;12.90;99.90
21568;DHT22;10944;42.590;12.630;2022-12-18T14:05:34;12.80;99.90
21568;DHT22;10944;42.590;12.630;2022-12-18T14:08:05;12.80;99.90
21568;DHT22;10944;42.590;12.630;2022-12-18T14:10:32;12.80;99.90
21568;DHT22;10944;42.590;12.630;2022-12-18T14:13:05;12.80;99.90
21568;DHT22;10944;42.590;12.630;2022-12-18T14:15:38;12.70;99.90
21568;DHT22;10944;42.590;12.630;2022-12-18T14:20:45;12.60;99.90
21568;DHT22;10944;42.590;12.630;2022-12-18T14:25:56;12.60;99.90
21568;DHT22;10944;42.590;12.630;2022-12-18T14:28:22;12.60;99.90
21568;DHT22;10944;42.590;12.630;2022-12-18T14:30:49;12.60;99.90
21568;DHT22;10944;42.590;12.630;2022-12-18T14:33:17;12.50;99.90
21568;DHT22;10944;42.590;12.630;2022-12-18T14:40:55;12.40;99.90
21568;DHT22;10944;42.590;12.630;2022-12-18T14:43:25;12.40;99.90
21568;DHT22;10944;42.590;12.630;2022-12-18T14:45:52;12.30;99.90
21568;DHT22;10944;42.590;12.630;2022-12-18T14:48:39;12.30;99.90
21568;DHT22;10944;42.590;12.630;2022-12-18T14:51:22;12.20;99.90
21568;DHT22;10944;42.590;12.630;2022-12-18T14:54:06;12.20;99.90
21568;DHT22;10944;42.590;12.630;2022-12-18T14:56:46;12.10;99.90
21568;DHT22;10944;42.590;12.630;2022-12-18T14:59:13;12.00;99.90
21568;DHT22;10944;42.590;12.630;2022-12-18T15:01:47;11.90;99.90
21568;DHT22;10944;42.590;12.630;2022-12-18T15:04:32;11.90;99.90
21568;DHT22;10944;42.590;12.630;2022-12-18T15:09:35;11.80;99.90
21568;DHT22;10944;42.590;12.630;2022-12-18T15:12:01;11.80;99.90
21568;DHT22;10944;42.590;12.630;2022-12-18T15:14:34;11.80;99.90
21568;DHT22;10944;42.590;12.630;2022-12-18T15:17:02;11.70;99.90
21568;DHT22;10944;42.590;12.630;2022-12-18T15:19:36;11.60;99.90
21568;DHT22;10944;42.590;12.630;2022-12-18T15:22:02;11.60;99.90
21568;DHT22;10944;42.590;12.630;2022-12-18T15:24:31;11.50;99.90
21568;DHT22;10944;42.590;12.630;2022-12-18T15:26:58;11.40;99.90
21568;DHT22;10944;42.590;12.630;2022-12-18T15:29:25;11.20;99.90
21568;DHT22;10944;42.590;12.630;2022-12-18T15:31:59;11.10;99.90
21568;DHT22;10944;42.590;12.630;2022-12-18T15:34:26;11.10;99.90
21568;DHT22;10944;42.590;12.630;2022-12-18T15:36:53;10.90;99.90
21568;DHT22;10944;42.590;12.630;2022-12-18T15:39:18;10.90;99.90
21568;DHT22;10944;42.590;12.630;2022-12-18T15:41:44;10.80;99.90
21568;DHT22;10944;42.590;12.630;2022-12-18T15:44:30;10.80;99.90
21568;DHT22;10944;42.590;12.630;2022-12-18T15:46:57;10.60;99.90
21568;DHT22;10944;42.590;12.630;2022-12-18T15:49:22;10.60;99.90
21568;DHT22;10944;42.590;12.630;2022-12-18T15:51:57;10.50;99.90
21568;DHT22;10944;42.590;12.630;2022-12-18T15:54:23;10.60;99.90
21568;DHT22;10944;42.590;12.630;2022-12-18T15:57:11;10.60;99.90
21568;DHT22;10944;42.590;12.630;2022-12-18T15:59:54;10.50;99.90
21568;DHT22;10944;42.590;12.630;2022-12-18T16:02:22;10.50;99.90
21568;DHT22;10944;42.590;12.630;2022-12-18T16:04:49;10.40;99.90
21568;DHT22;10944;42.590;12.630;2022-12-18T16:07:15;10.40;99.90
21568;DHT22;10944;42.590;12.630;2022-12-18T16:09:41;10.50;99.90
21568;DHT22;10944;42.590;12.630;2022-12-18T16:12:20;10.50;99.90
21568;DHT22;10944;42.590;12.630;2022-12-18T16:14:47;10.40;99.90
21568;DHT22;10944;42.590;12.630;2022-12-18T16:17:13;10.40;99.90
21568;DHT22;10944;42.590;12.630;2022-12-18T16:19:39;10.40;99.90
21568;DHT22;10944;42.590;12.630;2022-12-18T16:22:05;10.30;99.90
21568;DHT22;10944;42.590;12.630;2022-12-18T16:24:33;10.20;99.90
21568;DHT22;10944;42.590;12.630;2022-12-18T16:26:59;10.20;99.90
21568;DHT22;10944;42.590;12.630;2022-12-18T16:29:26;10.20;99.90
21568;DHT22;10944;42.590;12.630;2022-12-18T16:31:54;10.30;99.90
21568;DHT22;10944;42.590;12.630;2022-12-18T16:36:54;10.20;99.90
21568;DHT22;10944;42.590;12.630;2022-12-18T16:39:20;10.10;99.90
21568;DHT22;10944;42.590;12.630;2022-12-18T16:41:46;10.00;99.90
21568;DHT22;10944;42.590;12.630;2022-12-18T16:44:12;9.90;99.90
21568;DHT22;10944;42.590;12.630;2022-12-18T16:46:39;9.80;99.90
21568;DHT22;10944;42.590;12.630;2022-12-18T16:49:08;9.90;99.90
21568;DHT22;10944;42.590;12.630;2022-12-18T16:51:34;9.80;99.90
21568;DHT22;10944;42.590;12.630;2022-12-18T16:54:00;9.90;99.90
21568;DHT22;10944;42.590;12.630;2022-12-18T16:56:25;9.80;99.90
21568;DHT22;10944;42.590;12.630;2022-12-18T16:58:56;9.80;99.90
21568;DHT22;10944;42.590;12.630;2022-12-18T17:01:26;9.70;99.90
21568;DHT22;10944;42.590;12.630;2022-12-18T17:04:04;9.60;99.90
21568;DHT22;10944;42.590;12.630;2022-12-18T17:06:33;9.70;99.90
21568;DHT22;10944;42.590;12.630;2022-12-18T17:09:01;9.70;99.90
21568;DHT22;10944;42.590;12.630;2022-12-18T17:11:29;9.70;99.90
21568;DHT22;10944;42.590;12.630;2022-12-18T17:13:55;9.60;99.90
21568;DHT22;10944;42.590;12.630;2022-12-18T17:16:21;9.50;99.90
21568;DHT22;10944;42.590;12.630;2022-12-18T17:18:48;9.50;99.90
21568;DHT22;10944;42.590;12.630;2022-12-18T17:21:14;9.50;99.90
21568;DHT22;10944;42.590;12.630;2022-12-18T17:23:41;9.40;99.90
21568;DHT22;10944;42.590;12.630;2022-12-18T17:26:08;9.40;99.90
21568;DHT22;10944;42.590;12.630;2022-12-18T17:28:35;9.40;99.90
21568;DHT22;10944;42.590;12.630;2022-12-18T17:31:20;9.30;99.90
21568;DHT22;10944;42.590;12.630;2022-12-18T17:33:46;9.20;99.90
21568;DHT22;10944;42.590;12.630;2022-12-18T17:36:13;9.10;99.90
21568;DHT22;10944;42.590;12.630;2022-12-18T17:38:42;9.10;99.90
21568;DHT22;10944;42.590;12.630;2022-12-18T17:41:09;9.00;99.90
21568;DHT22;10944;42.590;12.630;2022-12-18T17:43:36;9.10;99.90
21568;DHT22;10944;42.590;12.630;2022-12-18T17:46:11;9.00;99.90
21568;DHT22;10944;42.590;12.630;2022-12-18T17:48:37;9.00;99.90
21568;DHT22;10944;42.590;12.630;2022-12-18T17:51:04;8.90;99.90